Fairdale, Pennsylvania
Current Conditions -  °F | °C
As of 12:53 PM on Friday 31 Oct 2014 (Local Time) from KMGW Reporting Station
Overcast Overcast  
Wind Chill: 50°   Ceiling: 4200
Heat Index: 50°   Visibility: 10mi
Dew Point: 32°   Wind: 0mph
Humidity: 50%   Direction: NA
Pressure: 29.9"   Gusts: NA
Location:  39.864°N, 80.0039°W
Report Text: KMGW 311653Z 00000KT 10SM OVC042 10/00 A2990 RMK AO2 SLP126 T01000000
Loading
Personal Weather Stations






























Interactive Weather Map
Tropical Storm Tracking
New forecast layout! Learn more

10-Day Weather Forecast

Advertisements
Track Severe Weather on mobile